Kieffer E Bailey — WDH4584 — position and weather

sailwx.info

Track history (hours):
 
Tides and Currents Weather Stations Pressure Air Temp Water Temp Dewpoint Dewpoint Depression Visibility Wind Speed Wind Dir Waves Ship Positions

Kieffer E Bailey

Owner: Marquette Transportation Company Gulf-Inland, LLC, Jefferson, LA. More information available from US FCC via Universal Licensing System and Coast Guard Vessel Documentation Center.

Last reported at 2018-May-22 21:30 UTC. Time now 2018-May-22 21:35 UTC.
Position N 30°04' W 093°16'.

Length 25 m; draft 2.9 m.

Type: Tow > 200 m length. MMSI: 367619240.

Date/timePositionNaut miles runAvg speedWind from/ knotsBaromVisibWave heightAir tempDewpointWater temp
2018-May-22 21:30N 30°04' W 093°16'0 0.0
2018-May-22 21:00N 30°04' W 093°16'0 0.0
2018-May-22 20:30N 30°04' W 093°16'0 0.0
2018-May-22 20:00N 30°04' W 093°16'0 0.0
2018-May-22 19:30N 30°04' W 093°16'0 0.0
2018-May-22 19:00N 30°04' W 093°16'0 0.0
2018-May-22 18:30N 30°04' W 093°16'0 0.0
2018-May-22 18:00N 30°04' W 093°16'0 0.0
2018-May-22 17:30N 30°04' W 093°16'0 0.0
2018-May-22 17:00N 30°04' W 093°16'0 0.0
2018-May-22 16:30N 30°04' W 093°16'0 0.0
2018-May-22 16:00N 30°04' W 093°16'0 0.0
2018-May-22 15:30N 30°04' W 093°16'0 0.0
2018-May-22 15:00N 30°04' W 093°16'0 0.0
2018-May-22 14:30N 30°04' W 093°16'0 0.0
2018-May-22 14:00N 30°04' W 093°16'0 0.0
2018-May-22 13:30N 30°04' W 093°16'0 0.0
2018-May-22 13:00N 30°04' W 093°16'0 0.0
2018-May-22 12:30N 30°04' W 093°16'0 0.1
2018-May-22 12:00N 30°04' W 093°16'1 1.8
2018-May-22 11:30N 30°03' W 093°16'2 3.3
2018-May-22 11:00N 30°02' W 093°15'0 0.0
2018-May-22 10:30N 30°02' W 093°15'0 0.0
2018-May-22 10:00N 30°02' W 093°15'0 0.0
2018-May-22 09:30N 30°02' W 093°15'0 0.0
2018-May-22 09:00N 30°02' W 093°15'0 0.0
2018-May-22 08:30N 30°02' W 093°15'0 0.0
2018-May-22 07:58N 30°02' W 093°15'0 0.0
2018-May-22 07:30N 30°02' W 093°15'1 1.2
2018-May-22 07:00N 30°01' W 093°14'2 3.4
2018-May-22 06:30N 29°60' W 093°13'2 3.5
2018-May-22 06:00N 29°59' W 093°12'2 3.1
2018-May-22 05:30N 29°57' W 093°11'2 3.4
2018-May-22 05:00N 29°56' W 093°09'1 1.9
2018-May-22 04:30N 29°56' W 093°08'1 1.6
2018-May-22 04:00N 29°56' W 093°07'1 2.9
2018-May-22 03:30N 29°56' W 093°06'2 3.1
2018-May-22 02:59N 29°56' W 093°04'  
2018-May-18 10:11N 30°24' W 091°13'0 0.2
2018-May-18 10:00N 30°24' W 091°13'0 0.1
2018-May-18 09:30N 30°24' W 091°13'0 0.0
2018-May-18 09:00N 30°24' W 091°13'  
2018-May-15 14:32N 29°49' W 092°17'0 3.6
2018-May-15 14:30N 29°49' W 092°17'2 3.8
2018-May-15 14:00N 29°50' W 092°19'2 3.9
2018-May-15 13:23N 29°51' W 092°21'1 2.6
2018-May-15 13:00N 29°52' W 092°22'2 3.4
2018-May-15 12:30N 29°53' W 092°23'2 4.2
2018-May-15 11:58N 29°53' W 092°26'2 4.2
2018-May-15 11:30N 29°54' W 092°28'2 4.1
2018-May-15 11:00N 29°54' W 092°30'2 3.9
2018-May-15 10:30N 29°54' W 092°33'2 4.1
2018-May-15 10:00N 29°55' W 092°35'2 4.4
2018-May-15 09:30N 29°55' W 092°37'2 3.6
2018-May-15 09:00N 29°56' W 092°39'2 4.1
2018-May-15 08:30N 29°57' W 092°42'2 4.0
2018-May-15 08:00N 29°58' W 092°44'2 3.8
2018-May-15 07:30N 29°58' W 092°46'2 4.2
2018-May-15 07:00N 29°58' W 092°48'1 2.0
2018-May-15 06:30N 29°58' W 092°49'1 2.7
2018-May-15 06:00N 29°58' W 092°51'2 3.5
2018-May-15 05:30N 29°57' W 092°53'2 3.8
2018-May-15 05:00N 29°56' W 092°55'2 3.7
2018-May-15 04:30N 29°56' W 092°57'2 3.8
2018-May-15 04:00N 29°56' W 092°59'2 4.1
2018-May-15 03:30N 29°56' W 093°01'2 4.0
2018-May-15 03:00N 29°56' W 093°04'1 2.3
2018-May-15 02:30N 29°56' W 093°05'2 4.0
2018-May-15 01:59N 29°56' W 093°07'2 4.0
2018-May-15 01:30N 29°56' W 093°10'2 4.2
2018-May-15 01:00N 29°58' W 093°11'2 4.3
2018-May-15 00:30N 29°59' W 093°13'2 4.0
2018-May-15 00:00N 30°01' W 093°14'2 3.9
2018-May-14 23:30N 30°02' W 093°16'2 4.2
2018-May-14 23:00N 30°04' W 093°16'1 3.0
2018-May-14 22:30N 30°05' W 093°18'0 0.7
2018-May-14 22:00N 30°06' W 093°18'1 1.4
2018-May-14 21:30N 30°06' W 093°18'0 0.0
2018-May-14 21:00N 30°06' W 093°18'0 0.0
2018-May-14 20:30N 30°06' W 093°18'0 0.0
2018-May-14 20:00N 30°06' W 093°18'0 0.0
2018-May-14 19:30N 30°06' W 093°18'0 0.0
2018-May-14 19:00N 30°06' W 093°18'0 0.0
2018-May-14 18:30N 30°06' W 093°18'0 0.0
2018-May-14 18:00N 30°06' W 093°18'0 0.0
2018-May-14 17:06N 30°06' W 093°18'0 0.0
2018-May-14 17:00N 30°06' W 093°18'0 0.0
2018-May-14 16:30N 30°06' W 093°18'0 0.0
2018-May-14 16:00N 30°06' W 093°18'0 0.0
2018-May-14 15:30N 30°06' W 093°18'2 3.3
2018-May-14 15:00N 30°05' W 093°20'2 3.2
2018-May-14 14:30N 30°04' W 093°21'1 2.3
2018-May-14 14:00N 30°04' W 093°22'2 4.1
2018-May-14 13:30N 30°04' W 093°25'3 4.6
2018-May-14 12:56N 30°04' W 093°28'2 4.5
2018-May-14 12:30N 30°04' W 093°30'3 4.7
2018-May-14 11:54N 30°04' W 093°33'2 4.8
2018-May-14 11:30N 30°04' W 093°35'3 5.2
2018-May-14 11:00N 30°04' W 093°38'3 5.5
2018-May-14 10:30N 30°04' W 093°42'2 4.8
2018-May-14 10:00N 30°02' W 093°44'2 4.7
2018-May-14 09:30N 30°01' W 093°46'3 5.5
2018-May-14 09:00N 29°59' W 093°48'3 5.6
2018-May-14 08:30N 29°58' W 093°51'3 6.0
2018-May-14 08:00N 29°55' W 093°53'3 5.4
2018-May-14 07:30N 29°53' W 093°55'2 4.2
2018-May-14 07:00N 29°52' W 093°56'1 2.8
2018-May-14 06:30N 29°50' W 093°57'2 3.9
2018-May-14 06:00N 29°49' W 093°59'2 4.2
2018-May-14 05:30N 29°48' W 094°01'2 4.5
2018-May-14 05:00N 29°46' W 094°03'2 4.5
2018-May-14 04:30N 29°45' W 094°05'2 4.8
2018-May-14 04:00N 29°43' W 094°07'2 4.7
2018-May-14 03:30N 29°42' W 094°09'2 4.4
2018-May-14 03:00N 29°41' W 094°11'2 4.5
2018-May-14 02:30N 29°40' W 094°14'2 4.4
2018-May-14 02:00N 29°39' W 094°16'2 4.2
2018-May-14 01:30N 29°38' W 094°18'2 4.0
2018-May-14 00:57N 29°37' W 094°20'2 4.2
2018-May-14 00:30N 29°36' W 094°22'2 4.2
2018-May-14 00:00N 29°36' W 094°25'2 3.5
2018-May-13 23:27N 29°34' W 094°26'1 1.5
2018-May-13 22:58N 29°34' W 094°26'2 4.2
2018-May-13 22:31N 29°33' W 094°28'13 3.9
2018-May-13 19:08N 29°27' W 094°42'1 4.4
2018-May-13 18:53N 29°26' W 094°43'1 2.5
2018-May-13 18:27N 29°25' W 094°44'2 3.3
2018-May-13 17:58N 29°24' W 094°45'2 4.3
2018-May-13 17:30N 29°23' W 094°47'2 3.6
2018-May-13 17:00N 29°23' W 094°49'3 5.2
2018-May-13 16:30N 29°25' W 094°50'4 7.2
2018-May-13 16:00N 29°29' W 094°52'3 6.6
2018-May-13 15:31N 29°31' W 094°53'3 6.9
2018-May-13 15:00N 29°34' W 094°56'3 6.8
2018-May-13 14:30N 29°37' W 094°58'3 6.2
2018-May-13 14:01N 29°40' W 094°59'3 6.2
2018-May-13 13:30N 29°42' W 095°01'5 4.4
2018-May-13 12:20N 29°44' W 095°07'2 5.7
2018-May-13 12:00N 29°44' W 095°09'2 2.8
2018-May-13 11:27N 29°45' W 095°10'0 0.1
2018-May-13 07:55N 29°45' W 095°10'0 0.1
2018-May-13 06:23N 29°45' W 095°11'0 0.4
2018-May-13 06:00N 29°45' W 095°10'0 0.0
2018-May-13 04:01N 29°45' W 095°10'0 0.1
2018-May-13 03:53N 29°45' W 095°10'0 0.8
2018-May-13 03:30N 29°45' W 095°11'0 0.3
2018-May-13 02:17N 29°45' W 095°10'0 0.6
2018-May-13 01:39N 29°45' W 095°11'0 1.2
2018-May-13 01:26N 29°45' W 095°11'0 0.4
2018-May-13 01:00N 29°45' W 095°10'0 0.1
2018-May-13 00:14N 29°45' W 095°10'0 0.1
2018-May-12 23:54N 29°45' W 095°10'0 0.3
2018-May-12 22:48N 29°45' W 095°11'0 0.0
2018-May-12 21:51N 29°45' W 095°11'  
Track history (hours):
 
Tides and Currents Weather Stations Pressure Air Temp Water Temp Dewpoint Dewpoint Depression Visibility Wind Speed Wind Dir Waves Ship Positions

Kieffer E Bailey

Owner: Marquette Transportation Company Gulf-Inland, LLC, Jefferson, LA. More information available from US FCC via Universal Licensing System and Coast Guard Vessel Documentation Center.

Last reported at 2018-May-22 21:30 UTC. Time now 2018-May-22 21:35 UTC.
Position N 30°04' W 093°16'.

Length 25 m; draft 2.9 m.

Type: Tow > 200 m length. MMSI: 367619240.

Date/timePositionNaut miles runAvg speedWind from/ knotsBaromVisibWave heightAir tempDewpointWater temp
2018-May-22 21:30N 30°04' W 093°16'0 0.0
2018-May-22 21:00N 30°04' W 093°16'0 0.0
2018-May-22 20:30N 30°04' W 093°16'0 0.0
2018-May-22 20:00N 30°04' W 093°16'0 0.0
2018-May-22 19:30N 30°04' W 093°16'0 0.0
2018-May-22 19:00N 30°04' W 093°16'0 0.0
2018-May-22 18:30N 30°04' W 093°16'0 0.0
2018-May-22 18:00N 30°04' W 093°16'0 0.0
2018-May-22 17:30N 30°04' W 093°16'0 0.0
2018-May-22 17:00N 30°04' W 093°16'0 0.0
2018-May-22 16:30N 30°04' W 093°16'0 0.0
2018-May-22 16:00N 30°04' W 093°16'0 0.0
2018-May-22 15:30N 30°04' W 093°16'0 0.0
2018-May-22 15:00N 30°04' W 093°16'0 0.0
2018-May-22 14:30N 30°04' W 093°16'0 0.0
2018-May-22 14:00N 30°04' W 093°16'0 0.0
2018-May-22 13:30N 30°04' W 093°16'0 0.0
2018-May-22 13:00N 30°04' W 093°16'0 0.0
2018-May-22 12:30N 30°04' W 093°16'0 0.1
2018-May-22 12:00N 30°04' W 093°16'1 1.8
2018-May-22 11:30N 30°03' W 093°16'2 3.3
2018-May-22 11:00N 30°02' W 093°15'0 0.0
2018-May-22 10:30N 30°02' W 093°15'0 0.0
2018-May-22 10:00N 30°02' W 093°15'0 0.0
2018-May-22 09:30N 30°02' W 093°15'0 0.0
2018-May-22 09:00N 30°02' W 093°15'0 0.0
2018-May-22 08:30N 30°02' W 093°15'0 0.0
2018-May-22 07:58N 30°02' W 093°15'0 0.0
2018-May-22 07:30N 30°02' W 093°15'1 1.2
2018-May-22 07:00N 30°01' W 093°14'2 3.4
2018-May-22 06:30N 29°60' W 093°13'2 3.5
2018-May-22 06:00N 29°59' W 093°12'2 3.1
2018-May-22 05:30N 29°57' W 093°11'2 3.4
2018-May-22 05:00N 29°56' W 093°09'1 1.9
2018-May-22 04:30N 29°56' W 093°08'1 1.6
2018-May-22 04:00N 29°56' W 093°07'1 2.9
2018-May-22 03:30N 29°56' W 093°06'2 3.1
2018-May-22 02:59N 29°56' W 093°04'  
2018-May-18 10:11N 30°24' W 091°13'0 0.2
2018-May-18 10:00N 30°24' W 091°13'0 0.1
2018-May-18 09:30N 30°24' W 091°13'0 0.0
2018-May-18 09:00N 30°24' W 091°13'  
2018-May-15 14:32N 29°49' W 092°17'0 3.6
2018-May-15 14:30N 29°49' W 092°17'2 3.8
2018-May-15 14:00N 29°50' W 092°19'2 3.9
2018-May-15 13:23N 29°51' W 092°21'1 2.6
2018-May-15 13:00N 29°52' W 092°22'2 3.4
2018-May-15 12:30N 29°53' W 092°23'2 4.2
2018-May-15 11:58N 29°53' W 092°26'2 4.2
2018-May-15 11:30N 29°54' W 092°28'2 4.1
2018-May-15 11:00N 29°54' W 092°30'2 3.9
2018-May-15 10:30N 29°54' W 092°33'2 4.1
2018-May-15 10:00N 29°55' W 092°35'2 4.4
2018-May-15 09:30N 29°55' W 092°37'2 3.6
2018-May-15 09:00N 29°56' W 092°39'2 4.1
2018-May-15 08:30N 29°57' W 092°42'2 4.0
2018-May-15 08:00N 29°58' W 092°44'2 3.8
2018-May-15 07:30N 29°58' W 092°46'2 4.2
2018-May-15 07:00N 29°58' W 092°48'1 2.0
2018-May-15 06:30N 29°58' W 092°49'1 2.7
2018-May-15 06:00N 29°58' W 092°51'2 3.5
2018-May-15 05:30N 29°57' W 092°53'2 3.8
2018-May-15 05:00N 29°56' W 092°55'2 3.7
2018-May-15 04:30N 29°56' W 092°57'2 3.8
2018-May-15 04:00N 29°56' W 092°59'2 4.1
2018-May-15 03:30N 29°56' W 093°01'2 4.0
2018-May-15 03:00N 29°56' W 093°04'1 2.3
2018-May-15 02:30N 29°56' W 093°05'2 4.0
2018-May-15 01:59N 29°56' W 093°07'2 4.0
2018-May-15 01:30N 29°56' W 093°10'2 4.2
2018-May-15 01:00N 29°58' W 093°11'2 4.3
2018-May-15 00:30N 29°59' W 093°13'2 4.0
2018-May-15 00:00N 30°01' W 093°14'2 3.9
2018-May-14 23:30N 30°02' W 093°16'2 4.2
2018-May-14 23:00N 30°04' W 093°16'1 3.0
2018-May-14 22:30N 30°05' W 093°18'0 0.7
2018-May-14 22:00N 30°06' W 093°18'1 1.4
2018-May-14 21:30N 30°06' W 093°18'0 0.0
2018-May-14 21:00N 30°06' W 093°18'0 0.0
2018-May-14 20:30N 30°06' W 093°18'0 0.0
2018-May-14 20:00N 30°06' W 093°18'0 0.0
2018-May-14 19:30N 30°06' W 093°18'0 0.0
2018-May-14 19:00N 30°06' W 093°18'0 0.0
2018-May-14 18:30N 30°06' W 093°18'0 0.0
2018-May-14 18:00N 30°06' W 093°18'0 0.0
2018-May-14 17:06N 30°06' W 093°18'0 0.0
2018-May-14 17:00N 30°06' W 093°18'0 0.0
2018-May-14 16:30N 30°06' W 093°18'0 0.0
2018-May-14 16:00N 30°06' W 093°18'0 0.0
2018-May-14 15:30N 30°06' W 093°18'2 3.3
2018-May-14 15:00N 30°05' W 093°20'2 3.2
2018-May-14 14:30N 30°04' W 093°21'1 2.3
2018-May-14 14:00N 30°04' W 093°22'2 4.1
2018-May-14 13:30N 30°04' W 093°25'3 4.6
2018-May-14 12:56N 30°04' W 093°28'2 4.5
2018-May-14 12:30N 30°04' W 093°30'3 4.7
2018-May-14 11:54N 30°04' W 093°33'2 4.8
2018-May-14 11:30N 30°04' W 093°35'3 5.2
2018-May-14 11:00N 30°04' W 093°38'3 5.5
2018-May-14 10:30N 30°04' W 093°42'2 4.8
2018-May-14 10:00N 30°02' W 093°44'2 4.7
2018-May-14 09:30N 30°01' W 093°46'3 5.5
2018-May-14 09:00N 29°59' W 093°48'3 5.6
2018-May-14 08:30N 29°58' W 093°51'3 6.0
2018-May-14 08:00N 29°55' W 093°53'3 5.4
2018-May-14 07:30N 29°53' W 093°55'2 4.2
2018-May-14 07:00N 29°52' W 093°56'1 2.8
2018-May-14 06:30N 29°50' W 093°57'2 3.9
2018-May-14 06:00N 29°49' W 093°59'2 4.2
2018-May-14 05:30N 29°48' W 094°01'2 4.5
2018-May-14 05:00N 29°46' W 094°03'2 4.5
2018-May-14 04:30N 29°45' W 094°05'2 4.8
2018-May-14 04:00N 29°43' W 094°07'2 4.7
2018-May-14 03:30N 29°42' W 094°09'2 4.4
2018-May-14 03:00N 29°41' W 094°11'2 4.5
2018-May-14 02:30N 29°40' W 094°14'2 4.4
2018-May-14 02:00N 29°39' W 094°16'2 4.2
2018-May-14 01:30N 29°38' W 094°18'2 4.0
2018-May-14 00:57N 29°37' W 094°20'2 4.2
2018-May-14 00:30N 29°36' W 094°22'2 4.2
2018-May-14 00:00N 29°36' W 094°25'2 3.5
2018-May-13 23:27N 29°34' W 094°26'1 1.5
2018-May-13 22:58N 29°34' W 094°26'2 4.2
2018-May-13 22:31N 29°33' W 094°28'13 3.9
2018-May-13 19:08N 29°27' W 094°42'1 4.4
2018-May-13 18:53N 29°26' W 094°43'1 2.5
2018-May-13 18:27N 29°25' W 094°44'2 3.3
2018-May-13 17:58N 29°24' W 094°45'2 4.3
2018-May-13 17:30N 29°23' W 094°47'2 3.6
2018-May-13 17:00N 29°23' W 094°49'3 5.2
2018-May-13 16:30N 29°25' W 094°50'4 7.2
2018-May-13 16:00N 29°29' W 094°52'3 6.6
2018-May-13 15:31N 29°31' W 094°53'3 6.9
2018-May-13 15:00N 29°34' W 094°56'3 6.8
2018-May-13 14:30N 29°37' W 094°58'3 6.2
2018-May-13 14:01N 29°40' W 094°59'3 6.2
2018-May-13 13:30N 29°42' W 095°01'5 4.4
2018-May-13 12:20N 29°44' W 095°07'2 5.7
2018-May-13 12:00N 29°44' W 095°09'2 2.8
2018-May-13 11:27N 29°45' W 095°10'0 0.1
2018-May-13 07:55N 29°45' W 095°10'0 0.1
2018-May-13 06:23N 29°45' W 095°11'0 0.4
2018-May-13 06:00N 29°45' W 095°10'0 0.0
2018-May-13 04:01N 29°45' W 095°10'0 0.1
2018-May-13 03:53N 29°45' W 095°10'0 0.8
2018-May-13 03:30N 29°45' W 095°11'0 0.3
2018-May-13 02:17N 29°45' W 095°10'0 0.6
2018-May-13 01:39N 29°45' W 095°11'0 1.2
2018-May-13 01:26N 29°45' W 095°11'0 0.4
2018-May-13 01:00N 29°45' W 095°10'0 0.1
2018-May-13 00:14N 29°45' W 095°10'0 0.1
2018-May-12 23:54N 29°45' W 095°10'0 0.3
2018-May-12 22:48N 29°45' W 095°11'0 0.0
2018-May-12 21:51N 29°45' W 095°11'  

Dump ship's entire track history